sensor_id;sensor_type;location;lat;lon;timestamp;P1;durP1;ratioP1;P2;durP2;ratioP2
15764;SDS011;7983;50.744;7.086;2023-11-19T00:00:56;0.80;;;0.50;;
15764;SDS011;7983;50.744;7.086;2023-11-19T00:03:36;1.02;;;0.75;;
15764;SDS011;7983;50.744;7.086;2023-11-19T00:06:11;0.57;;;0.50;;
15764;SDS011;7983;50.744;7.086;2023-11-19T00:08:39;1.00;;;0.70;;
15764;SDS011;7983;50.744;7.086;2023-11-19T00:11:08;0.75;;;0.50;;
15764;SDS011;7983;50.744;7.086;2023-11-19T00:13:40;0.70;;;0.50;;
15764;SDS011;7983;50.744;7.086;2023-11-19T00:16:08;0.77;;;0.50;;
15764;SDS011;7983;50.744;7.086;2023-11-19T00:18:35;0.65;;;0.50;;
15764;SDS011;7983;50.744;7.086;2023-11-19T00:21:01;0.90;;;0.50;;
15764;SDS011;7983;50.744;7.086;2023-11-19T00:23:29;0.77;;;0.60;;
15764;SDS011;7983;50.744;7.086;2023-11-19T00:25:55;1.20;;;0.80;;
15764;SDS011;7983;50.744;7.086;2023-11-19T00:28:23;1.38;;;0.70;;
15764;SDS011;7983;50.744;7.086;2023-11-19T00:30:49;0.90;;;0.73;;
15764;SDS011;7983;50.744;7.086;2023-11-19T00:33:23;0.85;;;0.55;;
15764;SDS011;7983;50.744;7.086;2023-11-19T00:35:56;0.63;;;0.50;;
15764;SDS011;7983;50.744;7.086;2023-11-19T00:38:22;1.63;;;0.70;;
15764;SDS011;7983;50.744;7.086;2023-11-19T00:40:47;0.73;;;0.57;;
15764;SDS011;7983;50.744;7.086;2023-11-19T00:43:13;0.60;;;0.50;;
15764;SDS011;7983;50.744;7.086;2023-11-19T00:45:41;0.90;;;0.47;;
15764;SDS011;7983;50.744;7.086;2023-11-19T00:48:09;0.85;;;0.60;;
15764;SDS011;7983;50.744;7.086;2023-11-19T00:50:35;1.02;;;0.70;;
15764;SDS011;7983;50.744;7.086;2023-11-19T00:53:02;0.93;;;0.70;;
15764;SDS011;7983;50.744;7.086;2023-11-19T00:55:29;0.98;;;0.80;;
15764;SDS011;7983;50.744;7.086;2023-11-19T00:57:59;1.58;;;0.73;;
15764;SDS011;7983;50.744;7.086;2023-11-19T01:00:25;0.95;;;0.82;;
15764;SDS011;7983;50.744;7.086;2023-11-19T01:02:54;0.82;;;0.63;;
15764;SDS011;7983;50.744;7.086;2023-11-19T01:05:22;0.93;;;0.80;;
15764;SDS011;7983;50.744;7.086;2023-11-19T01:07:48;1.08;;;0.98;;
15764;SDS011;7983;50.744;7.086;2023-11-19T01:10:15;2.15;;;0.75;;
15764;SDS011;7983;50.744;7.086;2023-11-19T01:12:41;0.80;;;0.70;;
15764;SDS011;7983;50.744;7.086;2023-11-19T01:15:09;1.08;;;0.80;;
15764;SDS011;7983;50.744;7.086;2023-11-19T01:17:36;0.88;;;0.60;;
15764;SDS011;7983;50.744;7.086;2023-11-19T01:20:05;2.75;;;0.80;;
15764;SDS011;7983;50.744;7.086;2023-11-19T01:22:31;0.93;;;0.60;;
15764;SDS011;7983;50.744;7.086;2023-11-19T01:24:57;0.93;;;0.60;;
15764;SDS011;7983;50.744;7.086;2023-11-19T01:27:26;0.70;;;0.40;;
15764;SDS011;7983;50.744;7.086;2023-11-19T01:29:51;0.52;;;0.50;;
15764;SDS011;7983;50.744;7.086;2023-11-19T01:32:17;0.32;;;0.30;;
15764;SDS011;7983;50.744;7.086;2023-11-19T01:34:45;0.40;;;0.30;;
15764;SDS011;7983;50.744;7.086;2023-11-19T01:37:13;0.30;;;0.28;;
15764;SDS011;7983;50.744;7.086;2023-11-19T01:39:43;0.20;;;0.20;;
15764;SDS011;7983;50.744;7.086;2023-11-19T01:42:10;1.08;;;0.40;;
15764;SDS011;7983;50.744;7.086;2023-11-19T01:44:37;0.38;;;0.30;;
15764;SDS011;7983;50.744;7.086;2023-11-19T01:47:04;0.28;;;0.28;;
15764;SDS011;7983;50.744;7.086;2023-11-19T01:49:31;2.88;;;0.30;;
15764;SDS011;7983;50.744;7.086;2023-11-19T01:51:58;0.30;;;0.25;;
15764;SDS011;7983;50.744;7.086;2023-11-19T01:54:24;0.35;;;0.30;;
15764;SDS011;7983;50.744;7.086;2023-11-19T01:56:50;0.40;;;0.30;;
15764;SDS011;7983;50.744;7.086;2023-11-19T01:59:21;0.32;;;0.32;;
15764;SDS011;7983;50.744;7.086;2023-11-19T02:01:51;0.32;;;0.30;;
15764;SDS011;7983;50.744;7.086;2023-11-19T02:04:19;0.30;;;0.20;;
15764;SDS011;7983;50.744;7.086;2023-11-19T02:06:47;0.20;;;0.20;;
15764;SDS011;7983;50.744;7.086;2023-11-19T02:09:15;0.30;;;0.30;;
15764;SDS011;7983;50.744;7.086;2023-11-19T02:11:44;0.30;;;0.30;;
15764;SDS011;7983;50.744;7.086;2023-11-19T02:14:24;0.22;;;0.22;;
15764;SDS011;7983;50.744;7.086;2023-11-19T02:16:51;0.43;;;0.22;;
15764;SDS011;7983;50.744;7.086;2023-11-19T02:19:20;0.10;;;0.10;;
15764;SDS011;7983;50.744;7.086;2023-11-19T02:21:48;0.20;;;0.20;;
15764;SDS011;7983;50.744;7.086;2023-11-19T02:24:16;0.30;;;0.20;;
15764;SDS011;7983;50.744;7.086;2023-11-19T02:27:02;0.30;;;0.30;;
15764;SDS011;7983;50.744;7.086;2023-11-19T02:29:40;0.30;;;0.30;;
15764;SDS011;7983;50.744;7.086;2023-11-19T02:32:08;0.50;;;0.28;;
15764;SDS011;7983;50.744;7.086;2023-11-19T02:34:34;0.20;;;0.20;;
15764;SDS011;7983;50.744;7.086;2023-11-19T02:37:00;0.30;;;0.15;;
15764;SDS011;7983;50.744;7.086;2023-11-19T02:39:26;0.50;;;0.30;;
15764;SDS011;7983;50.744;7.086;2023-11-19T02:41:51;0.35;;;0.30;;
15764;SDS011;7983;50.744;7.086;2023-11-19T02:44:19;0.32;;;0.30;;
15764;SDS011;7983;50.744;7.086;2023-11-19T02:46:45;0.38;;;0.30;;
15764;SDS011;7983;50.744;7.086;2023-11-19T02:49:14;0.30;;;0.20;;
15764;SDS011;7983;50.744;7.086;2023-11-19T02:51:40;0.95;;;0.25;;
15764;SDS011;7983;50.744;7.086;2023-11-19T02:54:06;0.57;;;0.30;;
15764;SDS011;7983;50.744;7.086;2023-11-19T02:56:32;0.40;;;0.25;;
15764;SDS011;7983;50.744;7.086;2023-11-19T02:59:01;0.73;;;0.30;;
15764;SDS011;7983;50.744;7.086;2023-11-19T03:01:37;0.20;;;0.20;;
15764;SDS011;7983;50.744;7.086;2023-11-19T03:04:02;0.30;;;0.30;;
15764;SDS011;7983;50.744;7.086;2023-11-19T03:06:29;0.28;;;0.28;;
15764;SDS011;7983;50.744;7.086;2023-11-19T03:08:54;1.65;;;0.40;;
15764;SDS011;7983;50.744;7.086;2023-11-19T03:11:20;0.20;;;0.20;;
15764;SDS011;7983;50.744;7.086;2023-11-19T03:13:46;0.28;;;0.28;;
15764;SDS011;7983;50.744;7.086;2023-11-19T03:16:12;0.47;;;0.47;;
15764;SDS011;7983;50.744;7.086;2023-11-19T03:18:38;0.20;;;0.20;;
15764;SDS011;7983;50.744;7.086;2023-11-19T03:21:05;0.98;;;0.40;;
15764;SDS011;7983;50.744;7.086;2023-11-19T03:23:32;0.70;;;0.30;;
15764;SDS011;7983;50.744;7.086;2023-11-19T03:26:00;1.38;;;0.47;;
15764;SDS011;7983;50.744;7.086;2023-11-19T03:28:31;1.05;;;0.40;;
15764;SDS011;7983;50.744;7.086;2023-11-19T03:31:06;1.15;;;0.40;;
15764;SDS011;7983;50.744;7.086;2023-11-19T03:33:33;1.67;;;0.50;;
15764;SDS011;7983;50.744;7.086;2023-11-19T03:38:27;1.98;;;0.70;;
15764;SDS011;7983;50.744;7.086;2023-11-19T03:40:52;3.75;;;1.08;;
15764;SDS011;7983;50.744;7.086;2023-11-19T03:43:18;3.63;;;1.08;;
15764;SDS011;7983;50.744;7.086;2023-11-19T03:45:46;4.35;;;1.10;;
15764;SDS011;7983;50.744;7.086;2023-11-19T03:48:11;7.25;;;1.50;;
15764;SDS011;7983;50.744;7.086;2023-11-19T03:50:46;2.63;;;1.00;;
15764;SDS011;7983;50.744;7.086;2023-11-19T03:53:12;5.10;;;1.20;;
15764;SDS011;7983;50.744;7.086;2023-11-19T03:55:40;3.15;;;1.00;;
15764;SDS011;7983;50.744;7.086;2023-11-19T03:58:07;2.85;;;1.10;;
15764;SDS011;7983;50.744;7.086;2023-11-19T04:00:39;5.63;;;1.30;;
15764;SDS011;7983;50.744;7.086;2023-11-19T04:03:05;2.92;;;1.23;;
15764;SDS011;7983;50.744;7.086;2023-11-19T04:05:34;4.47;;;1.40;;
15764;SDS011;7983;50.744;7.086;2023-11-19T04:07:59;1.88;;;0.98;;
15764;SDS011;7983;50.744;7.086;2023-11-19T04:10:25;2.75;;;1.00;;
15764;SDS011;7983;50.744;7.086;2023-11-19T04:12:52;3.63;;;1.10;;
15764;SDS011;7983;50.744;7.086;2023-11-19T04:15:18;2.13;;;0.93;;
15764;SDS011;7983;50.744;7.086;2023-11-19T04:17:43;3.53;;;1.25;;
15764;SDS011;7983;50.744;7.086;2023-11-19T04:20:11;4.45;;;1.10;;
15764;SDS011;7983;50.744;7.086;2023-11-19T04:22:38;2.63;;;1.23;;
15764;SDS011;7983;50.744;7.086;2023-11-19T04:25:04;2.95;;;1.05;;
15764;SDS011;7983;50.744;7.086;2023-11-19T04:27:30;3.47;;;1.20;;
15764;SDS011;7983;50.744;7.086;2023-11-19T04:30:00;2.90;;;0.90;;
15764;SDS011;7983;50.744;7.086;2023-11-19T04:32:27;2.25;;;0.70;;
15764;SDS011;7983;50.744;7.086;2023-11-19T04:34:55;3.10;;;1.00;;
15764;SDS011;7983;50.744;7.086;2023-11-19T04:37:23;2.63;;;1.25;;
15764;SDS011;7983;50.744;7.086;2023-11-19T04:39:48;4.65;;;1.20;;
15764;SDS011;7983;50.744;7.086;2023-11-19T04:42:16;2.28;;;1.00;;
15764;SDS011;7983;50.744;7.086;2023-11-19T04:44:46;2.53;;;1.08;;
15764;SDS011;7983;50.744;7.086;2023-11-19T04:47:14;3.83;;;1.00;;
15764;SDS011;7983;50.744;7.086;2023-11-19T04:49:42;5.43;;;1.17;;
15764;SDS011;7983;50.744;7.086;2023-11-19T04:52:08;2.80;;;1.02;;
15764;SDS011;7983;50.744;7.086;2023-11-19T04:54:40;3.25;;;1.40;;
15764;SDS011;7983;50.744;7.086;2023-11-19T04:57:09;5.75;;;1.40;;
15764;SDS011;7983;50.744;7.086;2023-11-19T04:59:36;5.72;;;1.40;;
15764;SDS011;7983;50.744;7.086;2023-11-19T05:02:04;4.82;;;1.40;;
15764;SDS011;7983;50.744;7.086;2023-11-19T05:04:32;3.90;;;1.13;;
15764;SDS011;7983;50.744;7.086;2023-11-19T05:06:58;5.32;;;1.65;;
15764;SDS011;7983;50.744;7.086;2023-11-19T05:09:26;4.95;;;1.55;;
15764;SDS011;7983;50.744;7.086;2023-11-19T05:11:52;5.50;;;1.40;;
15764;SDS011;7983;50.744;7.086;2023-11-19T05:14:18;5.07;;;1.33;;
15764;SDS011;7983;50.744;7.086;2023-11-19T05:16:49;4.10;;;1.23;;
15764;SDS011;7983;50.744;7.086;2023-11-19T05:19:15;4.53;;;1.40;;
15764;SDS011;7983;50.744;7.086;2023-11-19T05:21:43;5.85;;;1.55;;
15764;SDS011;7983;50.744;7.086;2023-11-19T05:24:12;4.18;;;1.33;;
15764;SDS011;7983;50.744;7.086;2023-11-19T05:26:38;5.82;;;1.50;;
15764;SDS011;7983;50.744;7.086;2023-11-19T05:29:06;6.40;;;1.27;;
15764;SDS011;7983;50.744;7.086;2023-11-19T05:31:32;3.35;;;1.17;;
15764;SDS011;7983;50.744;7.086;2023-11-19T05:33:57;3.45;;;1.48;;
15764;SDS011;7983;50.744;7.086;2023-11-19T05:36:23;5.22;;;1.63;;
15764;SDS011;7983;50.744;7.086;2023-11-19T05:38:48;6.30;;;1.63;;
15764;SDS011;7983;50.744;7.086;2023-11-19T05:41:14;4.47;;;1.50;;
15764;SDS011;7983;50.744;7.086;2023-11-19T05:43:40;4.45;;;1.52;;
15764;SDS011;7983;50.744;7.086;2023-11-19T05:46:08;5.40;;;1.80;;
15764;SDS011;7983;50.744;7.086;2023-11-19T05:48:34;5.20;;;1.45;;
15764;SDS011;7983;50.744;7.086;2023-11-19T05:51:03;6.07;;;1.58;;
15764;SDS011;7983;50.744;7.086;2023-11-19T05:53:30;8.95;;;1.90;;
15764;SDS011;7983;50.744;7.086;2023-11-19T05:55:59;7.25;;;1.77;;
15764;SDS011;7983;50.744;7.086;2023-11-19T05:58:29;5.57;;;1.55;;
15764;SDS011;7983;50.744;7.086;2023-11-19T06:00:55;5.85;;;1.67;;
15764;SDS011;7983;50.744;7.086;2023-11-19T06:03:21;9.82;;;1.85;;
15764;SDS011;7983;50.744;7.086;2023-11-19T06:05:52;7.25;;;1.80;;
15764;SDS011;7983;50.744;7.086;2023-11-19T06:08:19;5.85;;;1.52;;
15764;SDS011;7983;50.744;7.086;2023-11-19T06:10:48;7.43;;;2.38;;
15764;SDS011;7983;50.744;7.086;2023-11-19T06:13:16;13.20;;;2.33;;
15764;SDS011;7983;50.744;7.086;2023-11-19T06:15:41;11.52;;;2.30;;
15764;SDS011;7983;50.744;7.086;2023-11-19T06:18:10;9.68;;;1.90;;
15764;SDS011;7983;50.744;7.086;2023-11-19T06:20:39;6.15;;;1.80;;
15764;SDS011;7983;50.744;7.086;2023-11-19T06:23:05;8.40;;;1.88;;
15764;SDS011;7983;50.744;7.086;2023-11-19T06:25:31;8.77;;;2.35;;
15764;SDS011;7983;50.744;7.086;2023-11-19T06:27:57;9.32;;;1.85;;
15764;SDS011;7983;50.744;7.086;2023-11-19T06:30:26;7.72;;;1.58;;
15764;SDS011;7983;50.744;7.086;2023-11-19T06:32:53;6.28;;;1.77;;
15764;SDS011;7983;50.744;7.086;2023-11-19T06:35:19;5.03;;;1.70;;
15764;SDS011;7983;50.744;7.086;2023-11-19T06:37:44;5.05;;;1.75;;
15764;SDS011;7983;50.744;7.086;2023-11-19T06:40:10;5.57;;;1.58;;
15764;SDS011;7983;50.744;7.086;2023-11-19T06:42:43;8.80;;;1.98;;
15764;SDS011;7983;50.744;7.086;2023-11-19T06:45:11;7.18;;;1.77;;
15764;SDS011;7983;50.744;7.086;2023-11-19T06:47:39;9.15;;;1.80;;
15764;SDS011;7983;50.744;7.086;2023-11-19T06:50:05;6.97;;;1.80;;
15764;SDS011;7983;50.744;7.086;2023-11-19T06:52:32;6.45;;;1.77;;
15764;SDS011;7983;50.744;7.086;2023-11-19T06:54:59;6.90;;;1.80;;
15764;SDS011;7983;50.744;7.086;2023-11-19T06:57:27;6.65;;;1.73;;
15764;SDS011;7983;50.744;7.086;2023-11-19T06:59:54;8.68;;;1.63;;
15764;SDS011;7983;50.744;7.086;2023-11-19T07:02:20;7.75;;;1.92;;
15764;SDS011;7983;50.744;7.086;2023-11-19T07:04:47;7.75;;;1.63;;
15764;SDS011;7983;50.744;7.086;2023-11-19T07:07:15;10.50;;;2.38;;
15764;SDS011;7983;50.744;7.086;2023-11-19T07:09:41;7.30;;;1.80;;
15764;SDS011;7983;50.744;7.086;2023-11-19T07:12:07;7.90;;;2.33;;
15764;SDS011;7983;50.744;7.086;2023-11-19T07:14:35;8.60;;;2.00;;
15764;SDS011;7983;50.744;7.086;2023-11-19T07:17:01;11.68;;;2.03;;
15764;SDS011;7983;50.744;7.086;2023-11-19T07:19:29;8.75;;;1.92;;
15764;SDS011;7983;50.744;7.086;2023-11-19T07:21:54;6.20;;;1.67;;
15764;SDS011;7983;50.744;7.086;2023-11-19T07:24:22;6.30;;;1.70;;
15764;SDS011;7983;50.744;7.086;2023-11-19T07:26:48;7.38;;;1.98;;
15764;SDS011;7983;50.744;7.086;2023-11-19T07:29:16;6.68;;;1.70;;
15764;SDS011;7983;50.744;7.086;2023-11-19T07:31:42;7.75;;;1.95;;
15764;SDS011;7983;50.744;7.086;2023-11-19T07:34:13;7.97;;;2.22;;
15764;SDS011;7983;50.744;7.086;2023-11-19T07:36:39;8.02;;;2.10;;
15764;SDS011;7983;50.744;7.086;2023-11-19T07:39:05;7.35;;;2.05;;
15764;SDS011;7983;50.744;7.086;2023-11-19T07:41:33;7.47;;;1.75;;
15764;SDS011;7983;50.744;7.086;2023-11-19T07:43:59;14.43;;;2.40;;
15764;SDS011;7983;50.744;7.086;2023-11-19T07:46:27;7.60;;;1.92;;
15764;SDS011;7983;50.744;7.086;2023-11-19T07:48:53;6.30;;;1.75;;
15764;SDS011;7983;50.744;7.086;2023-11-19T07:51:18;7.65;;;1.90;;
15764;SDS011;7983;50.744;7.086;2023-11-19T07:53:44;6.15;;;1.55;;
15764;SDS011;7983;50.744;7.086;2023-11-19T07:56:12;11.82;;;2.53;;
15764;SDS011;7983;50.744;7.086;2023-11-19T07:58:40;10.90;;;1.80;;
15764;SDS011;7983;50.744;7.086;2023-11-19T08:01:06;7.22;;;2.05;;
15764;SDS011;7983;50.744;7.086;2023-11-19T08:03:33;7.55;;;2.20;;
15764;SDS011;7983;50.744;7.086;2023-11-19T08:05:59;8.18;;;2.00;;
15764;SDS011;7983;50.744;7.086;2023-11-19T08:08:26;10.07;;;2.30;;
15764;SDS011;7983;50.744;7.086;2023-11-19T08:10:51;11.63;;;2.20;;
15764;SDS011;7983;50.744;7.086;2023-11-19T08:13:18;8.93;;;2.05;;
15764;SDS011;7983;50.744;7.086;2023-11-19T08:15:44;8.90;;;2.00;;
15764;SDS011;7983;50.744;7.086;2023-11-19T08:18:11;6.43;;;1.70;;
15764;SDS011;7983;50.744;7.086;2023-11-19T08:20:36;8.40;;;2.50;;
15764;SDS011;7983;50.744;7.086;2023-11-19T08:23:02;10.25;;;2.30;;
15764;SDS011;7983;50.744;7.086;2023-11-19T08:25:31;11.38;;;2.30;;
15764;SDS011;7983;50.744;7.086;2023-11-19T08:27:58;8.75;;;2.03;;
15764;SDS011;7983;50.744;7.086;2023-11-19T08:30:25;11.48;;;2.33;;
15764;SDS011;7983;50.744;7.086;2023-11-19T08:32:53;8.75;;;2.78;;
15764;SDS011;7983;50.744;7.086;2023-11-19T08:35:23;9.65;;;2.33;;
15764;SDS011;7983;50.744;7.086;2023-11-19T08:37:49;10.50;;;2.17;;
15764;SDS011;7983;50.744;7.086;2023-11-19T08:40:17;12.07;;;2.72;;
15764;SDS011;7983;50.744;7.086;2023-11-19T08:42:42;10.13;;;2.10;;
15764;SDS011;7983;50.744;7.086;2023-11-19T08:45:11;10.05;;;2.15;;
15764;SDS011;7983;50.744;7.086;2023-11-19T08:47:39;10.10;;;2.20;;
15764;SDS011;7983;50.744;7.086;2023-11-19T08:50:07;10.63;;;2.22;;
15764;SDS011;7983;50.744;7.086;2023-11-19T08:52:33;8.02;;;2.10;;
15764;SDS011;7983;50.744;7.086;2023-11-19T08:55:01;9.45;;;2.00;;
15764;SDS011;7983;50.744;7.086;2023-11-19T08:57:28;12.27;;;2.80;;
15764;SDS011;7983;50.744;7.086;2023-11-19T08:59:53;11.40;;;2.53;;
15764;SDS011;7983;50.744;7.086;2023-11-19T09:02:24;10.57;;;2.40;;
15764;SDS011;7983;50.744;7.086;2023-11-19T09:04:51;13.23;;;2.33;;
15764;SDS011;7983;50.744;7.086;2023-11-19T09:07:17;6.93;;;2.10;;
15764;SDS011;7983;50.744;7.086;2023-11-19T09:09:43;8.93;;;2.30;;
15764;SDS011;7983;50.744;7.086;2023-11-19T09:12:08;10.93;;;2.10;;
15764;SDS011;7983;50.744;7.086;2023-11-19T09:14:34;11.52;;;2.50;;
15764;SDS011;7983;50.744;7.086;2023-11-19T09:17:00;9.18;;;2.25;;
15764;SDS011;7983;50.744;7.086;2023-11-19T09:19:31;11.80;;;3.08;;
15764;SDS011;7983;50.744;7.086;2023-11-19T09:21:57;13.95;;;2.53;;
15764;SDS011;7983;50.744;7.086;2023-11-19T09:24:25;11.57;;;3.03;;
15764;SDS011;7983;50.744;7.086;2023-11-19T09:26:51;9.98;;;2.30;;
15764;SDS011;7983;50.744;7.086;2023-11-19T09:29:17;16.80;;;3.28;;
15764;SDS011;7983;50.744;7.086;2023-11-19T09:31:42;6.68;;;2.25;;
15764;SDS011;7983;50.744;7.086;2023-11-19T09:34:10;8.05;;;2.25;;
15764;SDS011;7983;50.744;7.086;2023-11-19T09:36:36;9.90;;;2.80;;
15764;SDS011;7983;50.744;7.086;2023-11-19T09:39:01;7.82;;;2.67;;
15764;SDS011;7983;50.744;7.086;2023-11-19T09:41:29;9.45;;;2.33;;
15764;SDS011;7983;50.744;7.086;2023-11-19T09:43:56;11.20;;;2.80;;
15764;SDS011;7983;50.744;7.086;2023-11-19T09:46:22;14.30;;;3.20;;
15764;SDS011;7983;50.744;7.086;2023-11-19T09:48:49;10.07;;;2.53;;
15764;SDS011;7983;50.744;7.086;2023-11-19T09:51:20;9.85;;;2.42;;
15764;SDS011;7983;50.744;7.086;2023-11-19T09:53:47;10.90;;;2.70;;
15764;SDS011;7983;50.744;7.086;2023-11-19T09:56:14;11.13;;;2.90;;
15764;SDS011;7983;50.744;7.086;2023-11-19T09:58:44;11.18;;;2.80;;
15764;SDS011;7983;50.744;7.086;2023-11-19T10:01:10;9.38;;;2.40;;
15764;SDS011;7983;50.744;7.086;2023-11-19T10:03:37;9.57;;;2.58;;
15764;SDS011;7983;50.744;7.086;2023-11-19T10:06:09;11.68;;;2.75;;
15764;SDS011;7983;50.744;7.086;2023-11-19T10:08:39;9.60;;;2.40;;
15764;SDS011;7983;50.744;7.086;2023-11-19T10:11:08;9.73;;;2.50;;
15764;SDS011;7983;50.744;7.086;2023-11-19T10:13:36;11.40;;;3.00;;
15764;SDS011;7983;50.744;7.086;2023-11-19T10:16:09;10.55;;;2.88;;
15764;SDS011;7983;50.744;7.086;2023-11-19T10:18:45;10.45;;;2.38;;
15764;SDS011;7983;50.744;7.086;2023-11-19T10:21:17;11.38;;;3.15;;
15764;SDS011;7983;50.744;7.086;2023-11-19T10:23:55;11.32;;;2.97;;
15764;SDS011;7983;50.744;7.086;2023-11-19T10:26:30;12.65;;;3.03;;
15764;SDS011;7983;50.744;7.086;2023-11-19T10:28:55;12.00;;;2.40;;
15764;SDS011;7983;50.744;7.086;2023-11-19T10:31:24;11.05;;;2.70;;
15764;SDS011;7983;50.744;7.086;2023-11-19T10:33:51;10.98;;;3.03;;
15764;SDS011;7983;50.744;7.086;2023-11-19T10:36:17;10.75;;;3.03;;
15764;SDS011;7983;50.744;7.086;2023-11-19T10:38:53;11.05;;;2.45;;
15764;SDS011;7983;50.744;7.086;2023-11-19T10:41:30;12.63;;;2.83;;
15764;SDS011;7983;50.744;7.086;2023-11-19T10:43:59;10.48;;;2.25;;
15764;SDS011;7983;50.744;7.086;2023-11-19T10:46:40;6.13;;;2.10;;
15764;SDS011;7983;50.744;7.086;2023-11-19T10:49:07;10.20;;;2.47;;
15764;SDS011;7983;50.744;7.086;2023-11-19T10:51:36;9.98;;;2.60;;
15764;SDS011;7983;50.744;7.086;2023-11-19T10:54:03;7.50;;;2.30;;
15764;SDS011;7983;50.744;7.086;2023-11-19T10:56:32;9.85;;;2.47;;
15764;SDS011;7983;50.744;7.086;2023-11-19T10:58:59;8.32;;;2.17;;
15764;SDS011;7983;50.744;7.086;2023-11-19T11:01:33;6.88;;;2.10;;
15764;SDS011;7983;50.744;7.086;2023-11-19T11:04:05;9.15;;;2.22;;
15764;SDS011;7983;50.744;7.086;2023-11-19T11:06:38;10.68;;;2.72;;
15764;SDS011;7983;50.744;7.086;2023-11-19T11:09:05;9.38;;;2.58;;
15764;SDS011;7983;50.744;7.086;2023-11-19T11:11:31;8.43;;;2.40;;
15764;SDS011;7983;50.744;7.086;2023-11-19T11:13:59;8.50;;;2.25;;
15764;SDS011;7983;50.744;7.086;2023-11-19T11:16:28;9.05;;;2.20;;
15764;SDS011;7983;50.744;7.086;2023-11-19T11:18:56;8.57;;;2.30;;
15764;SDS011;7983;50.744;7.086;2023-11-19T11:21:25;9.15;;;2.13;;
15764;SDS011;7983;50.744;7.086;2023-11-19T11:24:06;11.20;;;2.40;;
15764;SDS011;7983;50.744;7.086;2023-11-19T11:29:28;9.23;;;2.60;;
15764;SDS011;7983;50.744;7.086;2023-11-19T11:37:32;8.75;;;2.15;;
15764;SDS011;7983;50.744;7.086;2023-11-19T11:40:02;8.68;;;2.10;;
15764;SDS011;7983;50.744;7.086;2023-11-19T11:42:38;7.82;;;2.38;;
15764;SDS011;7983;50.744;7.086;2023-11-19T11:50:17;8.32;;;1.85;;
15764;SDS011;7983;50.744;7.086;2023-11-19T11:58:02;8.80;;;3.22;;
15764;SDS011;7983;50.744;7.086;2023-11-19T12:00:30;7.95;;;1.95;;
15764;SDS011;7983;50.744;7.086;2023-11-19T12:02:59;8.73;;;2.13;;
15764;SDS011;7983;50.744;7.086;2023-11-19T12:05:26;6.90;;;2.13;;
15764;SDS011;7983;50.744;7.086;2023-11-19T12:07:55;7.03;;;1.70;;
15764;SDS011;7983;50.744;7.086;2023-11-19T12:10:23;8.90;;;1.88;;
15764;SDS011;7983;50.744;7.086;2023-11-19T12:12:52;9.73;;;2.00;;
15764;SDS011;7983;50.744;7.086;2023-11-19T12:15:18;6.85;;;2.13;;
15764;SDS011;7983;50.744;7.086;2023-11-19T12:17:50;5.68;;;1.63;;
15764;SDS011;7983;50.744;7.086;2023-11-19T12:20:17;8.95;;;1.95;;
15764;SDS011;7983;50.744;7.086;2023-11-19T12:22:47;6.65;;;2.13;;
15764;SDS011;7983;50.744;7.086;2023-11-19T12:25:14;7.50;;;1.80;;
15764;SDS011;7983;50.744;7.086;2023-11-19T12:27:48;4.07;;;1.52;;
15764;SDS011;7983;50.744;7.086;2023-11-19T12:30:18;6.28;;;1.65;;
15764;SDS011;7983;50.744;7.086;2023-11-19T12:32:55;6.35;;;1.83;;
15764;SDS011;7983;50.744;7.086;2023-11-19T12:35:20;5.90;;;1.50;;
15764;SDS011;7983;50.744;7.086;2023-11-19T12:37:49;5.18;;;1.80;;
15764;SDS011;7983;50.744;7.086;2023-11-19T12:40:22;7.78;;;2.25;;
15764;SDS011;7983;50.744;7.086;2023-11-19T12:42:49;7.78;;;2.20;;
15764;SDS011;7983;50.744;7.086;2023-11-19T12:45:18;6.00;;;2.00;;
15764;SDS011;7983;50.744;7.086;2023-11-19T12:47:45;4.97;;;1.52;;
15764;SDS011;7983;50.744;7.086;2023-11-19T12:50:17;4.93;;;1.75;;
15764;SDS011;7983;50.744;7.086;2023-11-19T12:52:54;7.32;;;2.00;;
15764;SDS011;7983;50.744;7.086;2023-11-19T12:55:26;7.93;;;2.17;;
15764;SDS011;7983;50.744;7.086;2023-11-19T12:57:53;10.85;;;2.78;;
15764;SDS011;7983;50.744;7.086;2023-11-19T13:00:25;9.63;;;2.38;;
15764;SDS011;7983;50.744;7.086;2023-11-19T13:02:55;6.88;;;2.08;;
15764;SDS011;7983;50.744;7.086;2023-11-19T13:05:28;6.22;;;2.00;;
15764;SDS011;7983;50.744;7.086;2023-11-19T13:08:07;11.60;;;2.40;;
15764;SDS011;7983;50.744;7.086;2023-11-19T13:10:49;8.63;;;2.30;;
15764;SDS011;7983;50.744;7.086;2023-11-19T13:13:19;7.50;;;1.73;;
15764;SDS011;7983;50.744;7.086;2023-11-19T13:15:45;8.80;;;2.40;;
15764;SDS011;7983;50.744;7.086;2023-11-19T13:18:11;10.55;;;2.08;;
15764;SDS011;7983;50.744;7.086;2023-11-19T13:20:37;5.95;;;1.75;;
15764;SDS011;7983;50.744;7.086;2023-11-19T13:23:07;7.90;;;2.65;;
15764;SDS011;7983;50.744;7.086;2023-11-19T13:25:33;9.13;;;2.10;;
15764;SDS011;7983;50.744;7.086;2023-11-19T13:28:01;9.05;;;2.10;;
15764;SDS011;7983;50.744;7.086;2023-11-19T13:30:31;8.00;;;2.28;;
15764;SDS011;7983;50.744;7.086;2023-11-19T13:32:56;8.02;;;2.05;;
15764;SDS011;7983;50.744;7.086;2023-11-19T13:35:22;6.88;;;1.67;;
15764;SDS011;7983;50.744;7.086;2023-11-19T13:37:48;7.18;;;1.83;;
15764;SDS011;7983;50.744;7.086;2023-11-19T13:40:16;6.05;;;2.00;;
15764;SDS011;7983;50.744;7.086;2023-11-19T13:42:47;6.22;;;1.40;;
15764;SDS011;7983;50.744;7.086;2023-11-19T13:45:15;5.97;;;1.85;;
15764;SDS011;7983;50.744;7.086;2023-11-19T13:47:45;6.50;;;1.83;;
15764;SDS011;7983;50.744;7.086;2023-11-19T13:50:15;6.90;;;1.80;;
15764;SDS011;7983;50.744;7.086;2023-11-19T13:52:45;6.32;;;1.50;;
15764;SDS011;7983;50.744;7.086;2023-11-19T13:55:12;7.90;;;2.22;;
15764;SDS011;7983;50.744;7.086;2023-11-19T13:57:41;8.15;;;2.05;;
15764;SDS011;7983;50.744;7.086;2023-11-19T14:00:09;5.65;;;1.67;;
15764;SDS011;7983;50.744;7.086;2023-11-19T14:02:42;7.72;;;2.10;;
15764;SDS011;7983;50.744;7.086;2023-11-19T14:05:10;7.38;;;2.17;;
15764;SDS011;7983;50.744;7.086;2023-11-19T14:07:37;7.00;;;1.90;;
15764;SDS011;7983;50.744;7.086;2023-11-19T14:10:05;8.05;;;2.30;;
15764;SDS011;7983;50.744;7.086;2023-11-19T14:12:34;10.75;;;2.03;;
15764;SDS011;7983;50.744;7.086;2023-11-19T14:15:01;7.07;;;2.15;;
15764;SDS011;7983;50.744;7.086;2023-11-19T14:17:27;8.35;;;2.17;;
15764;SDS011;7983;50.744;7.086;2023-11-19T14:19:55;5.78;;;1.70;;
15764;SDS011;7983;50.744;7.086;2023-11-19T14:22:20;5.70;;;1.83;;
15764;SDS011;7983;50.744;7.086;2023-11-19T14:24:49;6.22;;;1.73;;
15764;SDS011;7983;50.744;7.086;2023-11-19T14:27:14;8.15;;;1.80;;
15764;SDS011;7983;50.744;7.086;2023-11-19T14:29:42;6.80;;;1.75;;
15764;SDS011;7983;50.744;7.086;2023-11-19T14:32:08;10.30;;;1.98;;
15764;SDS011;7983;50.744;7.086;2023-11-19T14:34:33;6.28;;;2.00;;
15764;SDS011;7983;50.744;7.086;2023-11-19T14:37:04;6.68;;;2.30;;
15764;SDS011;7983;50.744;7.086;2023-11-19T14:39:31;7.75;;;1.85;;
15764;SDS011;7983;50.744;7.086;2023-11-19T14:41:57;7.18;;;1.80;;
15764;SDS011;7983;50.744;7.086;2023-11-19T14:44:29;5.85;;;1.77;;
15764;SDS011;7983;50.744;7.086;2023-11-19T14:46:55;7.05;;;2.03;;
15764;SDS011;7983;50.744;7.086;2023-11-19T14:49:23;5.18;;;1.80;;
15764;SDS011;7983;50.744;7.086;2023-11-19T14:51:49;5.68;;;1.60;;
15764;SDS011;7983;50.744;7.086;2023-11-19T14:54:18;6.18;;;1.98;;
15764;SDS011;7983;50.744;7.086;2023-11-19T14:56:43;9.50;;;2.30;;
15764;SDS011;7983;50.744;7.086;2023-11-19T14:59:09;8.25;;;2.20;;
15764;SDS011;7983;50.744;7.086;2023-11-19T15:01:40;7.63;;;1.98;;
15764;SDS011;7983;50.744;7.086;2023-11-19T15:04:13;8.60;;;2.03;;
15764;SDS011;7983;50.744;7.086;2023-11-19T15:06:38;4.43;;;1.40;;
15764;SDS011;7983;50.744;7.086;2023-11-19T15:09:06;5.10;;;1.50;;
15764;SDS011;7983;50.744;7.086;2023-11-19T15:11:35;5.97;;;1.60;;
15764;SDS011;7983;50.744;7.086;2023-11-19T15:14:00;7.00;;;1.63;;
15764;SDS011;7983;50.744;7.086;2023-11-19T15:16:28;7.38;;;1.52;;
15764;SDS011;7983;50.744;7.086;2023-11-19T15:18:59;8.80;;;2.00;;
15764;SDS011;7983;50.744;7.086;2023-11-19T15:21:28;5.50;;;1.80;;
15764;SDS011;7983;50.744;7.086;2023-11-19T15:23:54;6.38;;;1.80;;
15764;SDS011;7983;50.744;7.086;2023-11-19T15:26:23;4.57;;;1.45;;